Time;durP1;ratioP1;P1;durP2;ratioP2;P2;SDS_P1;SDS_P2;PMS_P1;PMS_P2;Temp;Humidity;BMP_temperature;BMP_pressure;BME280_temperature;BME280_humidity;BME280_pressure;Samples;Min_cycle;Max_cycle;Signal;HPM_P1;HPM_P2
2022/07/25 00:00:08;;;;;;;;;10.50;10.50;;;;;30.40;47.15;100765.16;5141003;27;45312;-84
2022/07/25 00:02:34;;;;;;;;;8.25;8.25;;;;;30.39;47.76;100754.53;5122194;27;45662;-85
2022/07/25 00:05:00;;;;;;;;;10.75;8.75;;;;;30.40;47.41;100745.56;5140362;27;46430;-82
2022/07/25 00:07:26;;;;;;;;;9.25;8.25;;;;;30.37;47.90;100743.03;5139173;27;45212;-82
2022/07/25 00:09:52;;;;;;;;;13.00;11.50;;;;;30.33;48.00;100734.28;5145148;27;45361;-85
2022/07/25 00:12:19;;;;;;;;;10.25;10.25;;;;;30.34;48.55;100733.34;5147892;27;45289;-86
2022/07/25 00:14:45;;;;;;;;;14.25;12.25;;;;;30.25;48.43;100729.22;5148158;27;46192;-90
2022/07/25 00:17:10;;;;;;;;;10.50;9.50;;;;;30.23;48.30;100728.41;5150450;27;45845;-91
2022/07/25 00:19:37;;;;;;;;;12.00;11.25;;;;;30.21;48.88;100729.41;5143279;27;45526;-87
2022/07/25 00:22:02;;;;;;;;;9.25;9.25;;;;;30.22;48.46;100728.47;5128152;27;45361;-87
2022/07/25 00:24:28;;;;;;;;;11.75;9.25;;;;;30.24;48.36;100721.25;5128308;27;45871;-89
2022/07/25 00:26:55;;;;;;;;;10.25;10.25;;;;;30.26;48.64;100722.97;5105292;27;45367;-87
2022/07/25 00:29:21;;;;;;;;;10.75;10.75;;;;;30.23;48.51;100716.88;5121530;27;45326;-81
2022/07/25 00:31:46;;;;;;;;;10.25;10.25;;;;;30.21;48.35;100722.25;5105580;27;45254;-89
2022/07/25 00:34:12;;;;;;;;;11.00;9.50;;;;;30.18;49.70;100716.16;5120521;27;46055;-87
2022/07/25 00:36:38;;;;;;;;;11.00;11.00;;;;;30.15;49.47;100717.16;5127503;27;45384;-88
2022/07/25 00:39:04;;;;;;;;;11.50;10.50;;;;;30.13;49.34;100716.34;5134715;27;45327;-90
2022/07/25 00:41:30;;;;;;;;;10.00;10.00;;;;;30.12;49.15;100714.59;5113191;27;44931;-92
2022/07/25 00:43:56;;;;;;;;;12.25;12.25;;;;;30.13;49.25;100713.69;5126141;27;45993;-88
2022/07/25 00:46:22;;;;;;;;;14.25;14.25;;;;;30.10;50.03;100712.00;5122881;27;45306;-85
2022/07/25 00:48:47;;;;;;;;;15.00;14.00;;;;;30.06;49.88;100723.72;5126737;27;44672;-89
2022/07/25 00:51:15;;;;;;;;;13.75;13.75;;;;;29.96;51.29;100730.34;5128306;27;45354;-93
2022/07/25 00:53:41;;;;;;;;;12.25;12.25;;;;;29.78;50.90;100739.88;5126896;27;45376;-92
2022/07/25 00:56:08;;;;;;;;;11.00;11.00;;;;;29.66;52.07;100733.19;5130608;27;45230;-92
2022/07/25 00:58:34;;;;;;;;;9.25;9.00;;;;;29.56;51.50;100735.31;5128547;27;45271;-89
2022/07/25 01:01:00;;;;;;;;;10.25;8.50;;;;;29.52;51.79;100736.38;5108519;27;45737;-92
2022/07/25 01:03:27;;;;;;;;;11.25;8.50;;;;;29.36;53.11;100738.69;5115704;27;45428;-91
2022/07/25 01:05:53;;;;;;;;;11.25;9.00;;;;;29.27;53.05;100737.19;5115347;27;45340;-88
2022/07/25 01:08:20;;;;;;;;;10.00;7.75;;;;;29.19;52.96;100731.25;5131085;27;45258;-92
2022/07/25 01:10:47;;;;;;;;;11.50;9.00;;;;;29.15;54.04;100746.50;5126636;27;45470;-93
2022/07/25 01:13:13;;;;;;;;;7.25;7.25;;;;;29.10;53.63;100734.25;5125158;27;46001;-91
2022/07/25 01:15:39;;;;;;;;;9.25;8.25;;;;;29.03;53.22;100721.09;5125071;27;45705;-86
2022/07/25 01:18:05;;;;;;;;;7.00;7.00;;;;;29.02;53.66;100729.16;5125372;27;45249;-83
2022/07/25 01:20:32;;;;;;;;;10.75;7.50;;;;;28.99;54.38;100735.47;5113920;27;45415;-89
2022/07/25 01:22:58;;;;;;;;;7.25;7.25;;;;;28.95;53.83;100731.16;5146662;27;45451;-91
2022/07/25 01:25:25;;;;;;;;;10.00;8.75;;;;;28.93;54.00;100733.00;5146263;27;45348;-87
2022/07/25 01:27:52;;;;;;;;;9.00;9.00;;;;;28.92;54.29;100731.25;5134055;27;45231;-83
2022/07/25 01:30:19;;;;;;;;;7.75;7.75;;;;;28.88;54.70;100737.63;5163273;27;45455;-82
2022/07/25 01:32:45;;;;;;;;;10.75;10.50;;;;;28.81;54.55;100730.72;5153588;27;45386;-90
2022/07/25 01:35:12;;;;;;;;;9.50;8.25;;;;;28.78;54.52;100730.84;5144833;27;45335;-88
2022/07/25 01:37:38;;;;;;;;;10.25;8.25;;;;;28.74;54.52;100735.38;5143854;27;45344;-87
2022/07/25 01:40:04;;;;;;;;;9.00;9.00;;;;;28.68;54.83;100730.25;5153497;27;44933;-89
2022/07/25 01:42:31;;;;;;;;;10.25;9.25;;;;;28.60;54.43;100730.47;5148167;27;46411;-90
2022/07/25 01:44:57;;;;;;;;;10.75;9.50;;;;;28.55;55.44;100727.09;5151260;27;45238;-89
2022/07/25 01:47:23;;;;;;;;;8.50;7.25;;;;;28.49;55.68;100725.50;5156177;27;45325;-80
2022/07/25 01:49:48;;;;;;;;;9.25;9.25;;;;;28.46;55.80;100730.91;5158314;27;44732;-81
2022/07/25 01:52:14;;;;;;;;;9.75;8.75;;;;;28.39;56.66;100730.25;5159734;27;45291;-88
2022/07/25 01:54:40;;;;;;;;;8.25;8.25;;;;;28.26;57.23;100734.19;5155392;27;45318;-86
2022/07/25 01:57:08;;;;;;;;;11.00;8.75;;;;;28.16;57.71;100735.38;5150164;27;45296;-87
2022/07/25 01:59:39;;;;;;;;;8.75;8.75;;;;;28.05;58.83;100741.88;5125093;27;45332;-90
2022/07/25 02:02:06;;;;;;;;;8.00;8.00;;;;;27.90;57.87;100742.34;5147725;27;46186;-85
2022/07/25 02:04:32;;;;;;;;;9.00;7.00;;;;;27.72;58.13;100749.03;5144459;27;45811;-81
2022/07/25 02:06:58;;;;;;;;;7.00;7.00;;;;;27.54;57.54;100734.44;5124325;27;45353;-86
2022/07/25 02:09:23;;;;;;;;;7.25;7.25;;;;;27.44;58.89;100736.47;5143280;27;45549;-83
2022/07/25 02:11:49;;;;;;;;;7.50;7.50;;;;;27.29;59.19;100727.09;5144079;27;45941;-84
2022/07/25 02:14:15;;;;;;;;;6.75;6.75;;;;;27.17;59.57;100742.44;5139869;27;45339;-83
2022/07/25 02:16:40;;;;;;;;;7.25;7.25;;;;;27.06;59.32;100739.19;5121457;27;45351;-82
2022/07/25 02:19:06;;;;;;;;;6.00;6.00;;;;;26.92;60.47;100751.97;5131430;27;45290;-89
2022/07/25 02:21:32;;;;;;;;;7.75;5.25;;;;;26.69;60.00;100737.41;5131081;27;45342;-87
2022/07/25 02:23:57;;;;;;;;;5.00;5.00;;;;;26.61;60.05;100745.56;5127488;27;45362;-92
2022/07/25 02:26:23;;;;;;;;;5.00;5.00;;;;;26.58;60.94;100735.00;5123808;27;45360;-89
2022/07/25 02:28:49;;;;;;;;;5.50;5.50;;;;;26.52;60.33;100738.66;5123163;27;45259;-89
2022/07/25 02:31:15;;;;;;;;;5.00;5.00;;;;;26.47;59.27;100747.63;5125388;27;46088;-93
2022/07/25 02:33:41;;;;;;;;;6.25;6.25;;;;;26.39;60.81;100748.69;5124046;27;45333;-87
2022/07/25 02:36:08;;;;;;;;;5.75;4.25;;;;;26.30;60.67;100734.75;5123873;27;45488;-86
2022/07/25 02:38:34;;;;;;;;;5.50;3.50;;;;;26.29;60.18;100741.84;5129140;27;45223;-85
2022/07/25 02:40:59;;;;;;;;;4.25;4.00;;;;;26.26;59.72;100733.94;5125068;27;45207;-87
2022/07/25 02:43:25;;;;;;;;;4.25;4.25;;;;;26.29;59.29;100739.19;5123327;27;45166;-91
2022/07/25 02:45:55;;;;;;;;;7.00;5.25;;;;;26.29;59.45;100733.03;5131492;27;45293;-84
2022/07/25 02:48:20;;;;;;;;;4.00;4.00;;;;;26.23;60.02;100731.38;5131660;27;45314;-87
2022/07/25 02:50:46;;;;;;;;;3.00;3.00;;;;;26.24;59.87;100738.44;5125143;27;45324;-86
2022/07/25 02:53:11;;;;;;;;;4.00;4.00;;;;;26.18;59.98;100746.50;5103557;27;45445;-87
2022/07/25 02:55:37;;;;;;;;;3.50;3.50;;;;;26.15;59.25;100746.56;5123751;27;45244;-84
2022/07/25 02:58:03;;;;;;;;;5.00;4.00;;;;;26.09;59.44;100744.88;5123772;27;45266;-86
2022/07/25 03:00:29;;;;;;;;;3.75;3.75;;;;;26.05;59.73;100743.22;5123922;27;45227;-85
2022/07/25 03:02:55;;;;;;;;;4.25;3.00;;;;;26.07;58.90;100744.06;5126770;27;45562;-85
2022/07/25 03:05:21;;;;;;;;;4.00;4.00;;;;;26.09;59.49;100747.53;5126166;27;45341;-82
2022/07/25 03:07:46;;;;;;;;;5.00;5.00;;;;;26.01;58.68;100739.75;5131203;27;45542;-88
2022/07/25 03:10:13;;;;;;;;;4.75;3.50;;;;;26.03;58.60;100745.88;5132901;27;46732;-85
2022/07/25 03:12:41;;;;;;;;;4.00;4.00;;;;;25.94;58.38;100756.69;5131378;27;45328;-87
2022/07/25 03:15:08;;;;;;;;;2.75;2.75;;;;;25.87;59.13;100753.28;5144870;27;45349;-86
2022/07/25 03:17:34;;;;;;;;;3.00;3.00;;;;;25.87;59.21;100763.03;5143143;27;45273;-85
2022/07/25 03:20:00;;;;;;;;;2.50;2.50;;;;;25.80;59.18;100762.25;5124676;27;48072;-87
2022/07/25 03:22:26;;;;;;;;;4.00;4.00;;;;;25.74;59.10;100754.44;5143277;27;45257;-88
2022/07/25 03:24:55;;;;;;;;;3.00;3.00;;;;;25.69;59.30;100764.25;5143065;27;45282;-86
2022/07/25 03:27:21;;;;;;;;;2.50;2.50;;;;;25.59;59.93;100759.13;5145959;27;45431;-86
2022/07/25 03:29:46;;;;;;;;;4.00;4.00;;;;;25.50;59.00;100756.66;5148114;27;45881;-89
2022/07/25 03:32:12;;;;;;;;;3.00;3.00;;;;;25.49;59.64;100766.34;5145271;27;45340;-87
2022/07/25 03:34:38;;;;;;;;;3.00;3.00;;;;;25.45;59.40;100761.13;5130313;27;45245;-81
2022/07/25 03:37:04;;;;;;;;;3.00;3.00;;;;;25.43;60.29;100766.47;5131357;27;45536;-86
2022/07/25 03:39:30;;;;;;;;;3.00;3.00;;;;;25.41;59.37;100772.72;5149107;27;45538;-84
2022/07/25 03:41:56;;;;;;;;;3.50;2.00;;;;;25.44;60.04;100783.25;5148100;27;45384;-86
2022/07/25 03:44:23;;;;;;;;;3.00;2.75;;;;;25.54;59.04;100776.03;5146789;27;45313;-83
2022/07/25 03:46:49;;;;;;;;;2.25;2.25;;;;;25.59;59.29;100780.34;5130511;27;45431;-89
2022/07/25 03:49:15;;;;;;;;;4.00;2.25;;;;;25.55;58.51;100798.97;5147536;27;45312;-83
2022/07/25 03:51:41;;;;;;;;;4.50;1.75;;;;;25.45;58.71;100793.84;5150093;27;45702;-88
2022/07/25 03:54:12;;;;;;;;;2.50;2.25;;;;;25.40;58.82;100800.09;5153748;27;45445;-85
2022/07/25 03:56:50;;;;;;;;;2.50;1.00;;;;;25.30;59.57;100797.59;5158291;27;45233;-86
2022/07/25 03:59:18;;;;;;;;;2.25;2.25;;;;;25.23;58.94;100803.03;5157950;27;45276;-86
2022/07/25 04:01:46;;;;;;;;;1.75;1.75;;;;;25.17;59.02;100804.00;5149072;27;45647;-86
2022/07/25 04:04:12;;;;;;;;;2.00;2.00;;;;;25.15;58.78;100809.34;5127544;27;45314;-85
2022/07/25 04:06:39;;;;;;;;;3.00;3.00;;;;;25.06;59.63;100809.44;5126762;27;45483;-87
2022/07/25 04:09:09;;;;;;;;;1.75;1.75;;;;;24.96;59.48;100794.59;5126804;27;45309;-87
2022/07/25 04:11:35;;;;;;;;;2.25;1.00;;;;;24.93;60.10;100794.66;5109916;27;45605;-83
2022/07/25 04:14:04;;;;;;;;;1.50;1.50;;;;;24.94;59.57;100793.78;5130529;27;45240;-85
2022/07/25 04:16:30;;;;;;;;;3.00;2.00;;;;;24.91;59.27;100794.66;5130922;27;45402;-86
2022/07/25 04:18:56;;;;;;;;;2.00;2.00;;;;;24.91;60.04;100807.06;5130643;27;45923;-89
2022/07/25 04:21:22;;;;;;;;;5.00;2.75;;;;;24.85;60.46;100810.66;5132023;27;45447;-89
2022/07/25 04:23:48;;;;;;;;;2.00;2.00;;;;;24.81;59.99;100814.25;5135655;27;45317;-88
2022/07/25 04:26:14;;;;;;;;;2.75;2.00;;;;;24.84;60.87;100819.50;5134964;27;45194;-87
2022/07/25 04:28:40;;;;;;;;;2.00;2.00;;;;;24.81;61.19;100809.84;5131214;27;46067;-86
2022/07/25 04:31:05;;;;;;;;;2.00;2.00;;;;;24.78;61.03;100822.25;5126339;27;45266;-85
2022/07/25 04:33:31;;;;;;;;;1.00;1.00;;;;;24.70;61.06;100820.56;5123689;27;45231;-87
2022/07/25 04:35:56;;;;;;;;;2.50;1.50;;;;;24.67;62.02;100819.69;5126031;27;45513;-89
2022/07/25 04:38:22;;;;;;;;;3.00;1.25;;;;;24.63;61.75;100824.16;5124528;27;45351;-85
2022/07/25 04:40:48;;;;;;;;;2.50;1.75;;;;;24.63;63.79;100828.56;5127272;27;45327;-88
2022/07/25 04:43:13;;;;;;;;;1.25;1.25;;;;;24.52;64.56;100826.94;5128576;27;45406;-88
2022/07/25 04:45:39;;;;;;;;;1.00;1.00;;;;;24.47;65.18;100818.19;5147202;27;45293;-90
2022/07/25 04:48:05;;;;;;;;;2.25;2.00;;;;;24.44;67.32;100834.13;5130237;27;46235;-85
2022/07/25 04:50:31;;;;;;;;;1.00;1.00;;;;;24.40;67.31;100837.72;5129984;27;45775;-83
2022/07/25 04:52:57;;;;;;;;;1.00;1.00;;;;;24.33;67.97;100843.94;5132062;27;45250;-90
2022/07/25 04:55:23;;;;;;;;;2.00;2.00;;;;;24.26;67.75;100832.56;5129203;27;45301;-86
2022/07/25 04:57:48;;;;;;;;;3.00;2.00;;;;;24.27;67.95;100829.91;5123166;27;45336;-87
2022/07/25 05:00:14;;;;;;;;;2.25;2.00;;;;;24.27;68.79;100826.38;5122718;27;45230;-84
2022/07/25 05:02:40;;;;;;;;;3.50;2.25;;;;;24.30;69.12;100836.06;5122624;27;45290;-88
2022/07/25 05:05:07;;;;;;;;;2.25;2.00;;;;;24.28;70.02;100838.72;5124752;27;45278;-87
2022/07/25 05:07:33;;;;;;;;;2.00;1.25;;;;;24.26;69.89;100820.22;5125748;27;45681;-91
2022/07/25 05:09:59;;;;;;;;;3.00;2.00;;;;;24.31;70.59;100822.81;5127615;27;45275;-90
2022/07/25 05:12:25;;;;;;;;;2.00;2.00;;;;;24.31;70.66;100825.47;5131604;27;45333;-84
2022/07/25 05:14:50;;;;;;;;;4.00;2.00;;;;;24.36;70.50;100830.69;5132786;27;45286;-87
2022/07/25 05:17:16;;;;;;;;;2.00;1.25;;;;;24.42;70.21;100830.59;5126837;27;45529;-89
2022/07/25 05:19:42;;;;;;;;;3.00;3.00;;;;;24.42;71.21;100817.38;5137841;27;45321;-86
2022/07/25 05:22:07;;;;;;;;;3.00;1.50;;;;;24.49;71.66;100842.88;5139108;27;44703;-92
2022/07/25 05:24:36;;;;;;;;;2.00;2.00;;;;;24.51;71.11;100837.56;5129164;27;45230;-92
2022/07/25 05:27:03;;;;;;;;;2.00;2.00;;;;;24.48;71.34;100845.53;5128371;27;45230;-88
2022/07/25 05:29:29;;;;;;;;;1.50;1.50;;;;;24.49;71.46;100842.00;5137330;27;45844;-89
2022/07/25 05:31:54;;;;;;;;;3.00;3.00;;;;;24.54;71.51;100841.03;5125749;27;45381;-89
2022/07/25 05:34:21;;;;;;;;;1.50;1.50;;;;;24.56;71.21;100839.25;5143910;27;45364;-91
2022/07/25 05:36:48;;;;;;;;;2.00;1.00;;;;;24.60;71.10;100844.53;5136644;27;45524;-92
2022/07/25 05:39:13;;;;;;;;;2.00;2.00;;;;;24.61;71.01;100851.56;5141127;27;45271;-89
2022/07/25 05:41:39;;;;;;;;;1.50;1.50;;;;;24.60;72.02;100861.25;5107452;27;45368;-85
2022/07/25 05:44:05;;;;;;;;;2.00;2.00;;;;;24.57;71.01;100858.66;5129141;27;45214;-83
2022/07/25 05:46:34;;;;;;;;;1.50;1.50;;;;;24.56;72.75;100859.56;5128641;27;46294;-85
2022/07/25 05:49:00;;;;;;;;;3.00;3.00;;;;;24.58;71.76;100865.69;5124457;27;45329;-85
2022/07/25 05:51:26;;;;;;;;;1.50;1.50;;;;;24.57;72.02;100861.28;5142981;27;45412;-88
2022/07/25 05:53:52;;;;;;;;;4.00;2.50;;;;;24.51;73.34;100872.84;5127586;27;45426;-86
2022/07/25 05:56:18;;;;;;;;;2.00;2.00;;;;;24.40;73.20;100872.13;5131121;27;45904;-85
2022/07/25 05:58:43;;;;;;;;;2.25;1.25;;;;;24.33;73.58;100876.59;5132587;27;45136;-85
2022/07/25 06:01:13;;;;;;;;;3.50;1.25;;;;;24.29;74.44;100872.22;5112397;27;45566;-83
2022/07/25 06:03:39;;;;;;;;;2.00;2.00;;;;;24.22;74.64;100874.06;5141156;27;45665;-86
2022/07/25 06:06:10;;;;;;;;;4.75;2.00;;;;;24.19;74.58;100876.72;5138892;27;45968;-83
2022/07/25 06:08:36;;;;;;;;;2.00;2.00;;;;;24.17;75.00;100878.53;5139262;27;45333;-88
2022/07/25 06:11:06;;;;;;;;;2.25;2.25;;;;;24.20;75.14;100877.63;5130619;27;45232;-88
2022/07/25 06:13:32;;;;;;;;;2.75;2.00;;;;;24.22;75.21;100887.28;5127515;27;45426;-88
2022/07/25 06:15:58;;;;;;;;;3.25;2.50;;;;;24.15;77.09;100898.84;5122413;27;46119;-85
2022/07/25 06:18:25;;;;;;;;;3.00;2.00;;;;;24.11;76.68;100881.22;5126539;27;45208;-86
2022/07/25 06:20:51;;;;;;;;;2.00;1.50;;;;;24.07;75.62;100890.09;5107747;27;45366;-88
2022/07/25 06:23:17;;;;;;;;;2.00;2.00;;;;;24.07;77.03;100893.63;5101837;27;45536;-87
2022/07/25 06:25:43;;;;;;;;;1.00;1.00;;;;;24.05;76.81;100899.81;5126982;27;45496;-82
2022/07/25 06:28:09;;;;;;;;;2.00;2.00;;;;;24.00;77.26;100902.50;5118402;27;45350;-86
2022/07/25 06:30:36;;;;;;;;;4.00;3.00;;;;;23.99;77.24;100898.09;5122255;27;45405;-83
2022/07/25 06:33:02;;;;;;;;;2.25;2.25;;;;;23.99;77.71;100899.84;5126238;27;45538;-84
2022/07/25 06:35:27;;;;;;;;;2.00;2.00;;;;;23.94;78.75;100910.44;5136670;27;46008;-83
2022/07/25 06:37:53;;;;;;;;;3.00;2.00;;;;;23.93;77.69;100913.97;5121522;27;45364;-82
2022/07/25 06:40:19;;;;;;;;;3.75;3.00;;;;;23.93;78.80;100916.63;5115321;27;45301;-82
2022/07/25 06:42:46;;;;;;;;;2.25;1.25;;;;;23.92;79.71;100915.75;5124541;27;45510;-82
2022/07/25 06:45:13;;;;;;;;;2.50;2.00;;;;;23.92;79.35;100920.16;5121946;27;45231;-82
2022/07/25 06:47:40;;;;;;;;;1.50;1.50;;;;;23.92;81.10;100934.28;5127278;27;45479;-84
2022/07/25 06:50:08;;;;;;;;;2.00;2.00;;;;;23.92;81.01;100925.44;5139800;27;45420;-87
2022/07/25 06:52:34;;;;;;;;;5.75;3.00;;;;;23.94;82.28;100919.28;5140142;27;45487;-84
2022/07/25 06:55:00;;;;;;;;;2.00;2.00;;;;;23.94;83.16;100924.56;5121956;27;45326;-87
2022/07/25 06:57:26;;;;;;;;;2.50;2.00;;;;;23.90;83.16;100911.38;5124187;27;45432;-84
2022/07/25 06:59:52;;;;;;;;;1.50;1.50;;;;;23.95;81.23;100925.47;5140772;27;45148;-81
2022/07/25 07:02:17;;;;;;;;;3.00;3.00;;;;;24.00;81.68;100933.34;5133817;27;45299;-82
2022/07/25 07:04:43;;;;;;;;;2.00;2.00;;;;;23.95;82.04;100936.94;5135556;27;46109;-81
2022/07/25 07:07:08;;;;;;;;;2.00;2.00;;;;;23.93;82.43;100930.75;5132589;27;45472;-83
2022/07/25 07:09:34;;;;;;;;;3.50;3.50;;;;;23.92;83.49;100947.50;5125086;27;45285;-82
2022/07/25 07:12:00;;;;;;;;;2.75;1.50;;;;;23.88;82.54;100931.66;5129268;27;45433;-83
2022/07/25 07:14:25;;;;;;;;;2.25;2.25;;;;;23.87;82.95;100948.44;5124848;27;45971;-84
2022/07/25 07:16:51;;;;;;;;;2.00;2.00;;;;;23.84;83.07;100948.44;5116694;27;45462;-82
2022/07/25 07:19:16;;;;;;;;;2.00;2.00;;;;;23.79;83.46;100952.03;5127342;27;45488;-85
2022/07/25 07:21:42;;;;;;;;;1.50;1.50;;;;;23.78;83.44;100942.34;5137150;27;44856;-86
2022/07/25 07:24:08;;;;;;;;;2.75;2.75;;;;;23.74;85.09;100945.88;5137244;27;46793;-85
2022/07/25 07:26:35;;;;;;;;;4.00;1.75;;;;;23.76;86.22;100956.44;5130980;27;45744;-88
2022/07/25 07:29:04;;;;;;;;;2.00;2.00;;;;;23.71;86.24;100945.03;5141022;27;45359;-82
2022/07/25 07:31:29;;;;;;;;;2.25;1.00;;;;;23.72;85.85;100949.44;5136467;27;45549;-85
2022/07/25 07:33:55;;;;;;;;;4.00;1.75;;;;;23.74;85.79;100948.53;5119999;27;45646;-86
2022/07/25 07:36:21;;;;;;;;;2.00;2.00;;;;;23.80;85.97;100947.59;5123590;27;45521;-87
2022/07/25 07:38:47;;;;;;;;;3.00;2.00;;;;;23.90;84.85;100956.34;5122405;27;45473;-91
2022/07/25 07:41:13;;;;;;;;;3.25;1.25;;;;;23.90;84.25;100949.28;5102184;27;45481;-87
2022/07/25 07:43:40;;;;;;;;;2.00;2.00;;;;;23.98;85.10;100945.72;5130688;27;46151;-86
2022/07/25 07:46:06;;;;;;;;;2.75;2.00;;;;;24.01;83.81;100957.16;5143448;27;45691;-84
2022/07/25 07:48:32;;;;;;;;;1.00;1.00;;;;;24.02;84.40;100958.03;5144461;27;45309;-86
2022/07/25 07:51:00;;;;;;;;;0.50;0.50;;;;;24.05;84.94;100947.44;5138051;27;45536;-85
2022/07/25 07:55:42;;;;;;;;;3.00;2.00;;;;;24.09;84.81;100947.38;5135859;27;45963;-86
2022/07/25 07:56:12;;;;;;;;;3.50;1.00;;;;;24.16;85.04;100969.38;5139515;27;45561;-88
2022/07/25 07:58:39;;;;;;;;;1.00;1.00;;;;;24.18;84.61;100967.59;5123970;27;45402;-88
2022/07/25 08:01:05;;;;;;;;;1.00;1.00;;;;;24.19;84.73;100969.31;5130331;27;45203;-87
2022/07/25 08:03:31;;;;;;;;;1.00;1.00;;;;;24.25;84.54;100977.22;5118501;27;46969;-84
2022/07/25 08:05:57;;;;;;;;;1.00;0.00;;;;;24.31;84.34;100980.69;5147517;27;44834;-83
2022/07/25 08:08:23;;;;;;;;;2.00;2.00;;;;;24.35;83.96;100969.19;5130312;27;44766;-85
2022/07/25 08:10:49;;;;;;;;;1.50;1.00;;;;;24.41;84.11;100971.75;5133254;27;45295;-83
2022/07/25 08:13:23;;;;;;;;;0.75;0.75;;;;;24.47;84.03;100978.75;5128981;27;46418;-84
2022/07/25 08:15:56;;;;;;;;;1.00;1.00;;;;;24.53;83.05;100984.88;5133604;27;44989;-88
2022/07/25 08:18:22;;;;;;;;;3.00;3.00;;;;;24.57;82.76;100978.66;5131817;27;45261;-87
2022/07/25 08:20:49;;;;;;;;;1.75;1.75;;;;;24.54;82.50;100983.13;5134879;27;45199;-85
2022/07/25 08:23:15;;;;;;;;;1.00;1.00;;;;;24.50;83.08;100978.72;5136580;27;45361;-85
2022/07/25 08:25:43;;;;;;;;;1.25;0.00;;;;;24.47;83.02;100974.34;5121396;27;45280;-85
2022/07/25 08:28:08;;;;;;;;;2.00;1.00;;;;;24.56;83.01;100978.69;5126312;27;45260;-85
2022/07/25 08:30:35;;;;;;;;;1.00;1.00;;;;;24.72;81.81;100974.13;5124516;27;45602;-89
2022/07/25 08:33:04;;;;;;;;;2.00;2.00;;;;;24.82;82.04;100970.47;5128702;27;45402;-84
2022/07/25 08:35:31;;;;;;;;;3.00;2.00;;;;;24.96;81.49;100967.66;5132656;27;45728;-84
2022/07/25 08:37:59;;;;;;;;;1.00;1.00;;;;;25.11;79.30;100976.28;5124871;27;44817;-86
2022/07/25 08:40:26;;;;;;;;;3.00;1.00;;;;;25.16;78.36;100977.97;5138887;27;45437;-88
2022/07/25 08:42:57;;;;;;;;;1.75;1.75;;;;;25.23;78.50;100981.41;5132623;27;45488;-87
2022/07/25 08:45:24;;;;;;;;;3.00;2.00;;;;;25.27;77.82;100969.91;5143656;27;45389;-88
2022/07/25 08:47:51;;;;;;;;;1.00;1.00;;;;;25.39;77.82;100971.47;5123502;27;45312;-89
2022/07/25 08:50:28;;;;;;;;;2.25;1.00;;;;;25.46;77.48;100977.59;5114694;27;45316;-86
2022/07/25 08:52:54;;;;;;;;;3.50;2.00;;;;;25.57;77.46;100982.75;5156311;27;46058;-93
2022/07/25 08:55:22;;;;;;;;;1.00;1.00;;;;;25.67;76.75;100986.13;5123609;27;45402;-84
2022/07/25 08:57:50;;;;;;;;;1.00;1.00;;;;;25.71;75.87;100974.59;5127758;27;45016;-88
2022/07/25 09:00:22;;;;;;;;;1.00;1.00;;;;;25.78;75.73;100990.41;5136771;27;45409;-83
2022/07/25 09:03:07;;;;;;;;;2.00;2.00;;;;;25.74;75.63;100988.69;5145687;27;45364;-85
2022/07/25 09:05:34;;;;;;;;;2.00;1.75;;;;;25.75;75.24;100985.13;5137310;27;45512;-86
2022/07/25 09:08:07;;;;;;;;;1.00;1.00;;;;;25.77;75.10;100993.03;5139087;27;45282;-87
2022/07/25 09:10:34;;;;;;;;;2.50;2.50;;;;;25.73;75.78;100991.38;5131645;27;44927;-85
2022/07/25 09:13:06;;;;;;;;;1.75;1.00;;;;;25.75;75.22;100997.53;5132268;27;45178;-83
2022/07/25 09:15:35;;;;;;;;;0.75;0.75;;;;;25.85;75.22;101001.78;5140441;27;45558;-82
2022/07/25 09:18:07;;;;;;;;;1.00;1.00;;;;;25.98;74.10;100998.91;5146653;27;45274;-82
2022/07/25 09:20:43;;;;;;;;;0.50;0.50;;;;;26.06;73.23;101018.25;5125187;27;45390;-84
2022/07/25 09:23:11;;;;;;;;;1.50;1.50;;;;;26.08;72.13;101033.25;5137201;27;46852;-89
2022/07/25 09:25:38;;;;;;;;;3.00;2.00;;;;;26.03;72.37;101015.63;5136048;27;45251;-86
2022/07/25 09:28:11;;;;;;;;;1.00;1.00;;;;;26.03;72.87;101026.25;5129989;27;45356;-87
2022/07/25 09:30:38;;;;;;;;;1.25;1.25;;;;;25.95;72.87;101019.31;5127551;27;45577;-87
2022/07/25 09:33:04;;;;;;;;;2.00;2.00;;;;;25.93;73.33;101015.78;5128705;27;45372;-87
2022/07/25 09:35:33;;;;;;;;;2.00;2.00;;;;;25.98;73.34;101004.22;5114098;27;45405;-90
2022/07/25 09:38:10;;;;;;;;;1.25;1.25;;;;;26.14;72.49;101020.78;5132509;27;45237;-89
2022/07/25 09:40:36;;;;;;;;;3.00;2.00;;;;;26.22;71.60;101019.75;5126856;27;45377;-86
2022/07/25 09:43:01;;;;;;;;;3.00;2.00;;;;;26.34;71.55;101029.31;5124277;27;46071;-89
2022/07/25 09:45:27;;;;;;;;;1.00;1.00;;;;;26.41;70.70;101022.09;5127409;27;45353;-88
2022/07/25 09:47:57;;;;;;;;;3.00;3.00;;;;;26.57;69.99;101042.16;5121259;27;45282;-84
2022/07/25 09:50:26;;;;;;;;;2.00;2.00;;;;;26.55;70.26;101019.22;5119949;27;45418;-84
2022/07/25 09:52:54;;;;;;;;;1.00;1.00;;;;;26.40;69.98;101030.97;5119758;27;45299;-83
2022/07/25 09:55:20;;;;;;;;;1.00;1.00;;;;;26.29;70.22;101032.94;5121382;27;45590;-85
2022/07/25 09:57:47;;;;;;;;;4.00;3.00;;;;;26.23;70.87;101037.44;5123507;27;45329;-84
2022/07/25 10:00:19;;;;;;;;;2.75;2.50;;;;;26.21;71.03;101030.41;5126699;27;45583;-81
2022/07/25 10:02:53;;;;;;;;;4.75;2.50;;;;;26.21;71.96;101035.72;5127502;27;45394;-84
2022/07/25 10:05:28;;;;;;;;;2.00;2.00;;;;;26.30;72.07;101045.28;5127751;27;45364;-82
2022/07/25 10:07:54;;;;;;;;;2.00;2.00;;;;;26.37;71.09;101042.50;5122452;27;45362;-82
2022/07/25 10:10:35;;;;;;;;;3.50;2.50;;;;;26.47;71.29;101043.22;5108095;27;45593;-84
2022/07/25 10:13:14;;;;;;;;;2.75;2.75;;;;;26.49;70.82;101044.09;5141184;27;46126;-82
2022/07/25 10:15:51;;;;;;;;;2.00;2.00;;;;;26.54;71.26;101055.50;5141019;27;45643;-83
2022/07/25 10:18:20;;;;;;;;;3.00;2.25;;;;;26.55;70.00;101049.28;5140379;27;45501;-85
2022/07/25 10:20:48;;;;;;;;;3.00;2.00;;;;;26.50;69.91;101051.16;5131051;27;45428;-81
2022/07/25 10:23:25;;;;;;;;;3.25;2.75;;;;;26.52;69.95;101051.97;5126537;27;47040;-84
2022/07/25 10:26:24;;;;;;;;;2.75;1.75;;;;;26.49;70.11;101059.13;5136140;27;45473;-86
2022/07/25 10:28:53;;;;;;;;;2.75;2.75;;;;;26.44;69.63;101056.56;5129730;27;45339;-85
2022/07/25 10:31:23;;;;;;;;;5.00;4.00;;;;;26.47;70.86;101055.63;5143662;27;44870;-77
2022/07/25 10:33:57;;;;;;;;;2.25;1.50;;;;;26.54;70.32;101050.19;5143061;27;46013;-86
2022/07/25 10:36:27;;;;;;;;;1.75;1.75;;;;;26.62;70.86;101065.13;5128655;27;45340;-83
2022/07/25 10:38:58;;;;;;;;;2.25;2.25;;;;;26.70;71.10;101064.06;5125520;27;45211;-85
2022/07/25 10:41:25;;;;;;;;;2.00;2.00;;;;;26.74;69.90;101064.88;5126103;27;45305;-89
2022/07/25 10:43:54;;;;;;;;;3.00;3.00;;;;;26.70;69.32;101065.84;5137728;27;46367;-88
2022/07/25 10:46:22;;;;;;;;;2.00;2.00;;;;;26.51;69.41;101065.28;5150007;27;45324;-90
2022/07/25 10:48:58;;;;;;;;;1.00;0.75;;;;;26.35;70.07;101081.47;5129431;27;45398;-83
2022/07/25 10:51:30;;;;;;;;;2.25;2.25;;;;;26.26;70.38;101079.88;5125422;27;45637;-83
2022/07/25 10:53:56;;;;;;;;;2.75;2.75;;;;;26.25;70.83;101082.53;5148465;27;45393;-87
2022/07/25 10:56:27;;;;;;;;;2.00;2.00;;;;;26.19;71.55;101086.16;5133882;27;45239;-85
2022/07/25 10:58:56;;;;;;;;;2.00;2.00;;;;;26.15;72.18;101081.81;5140721;27;44800;-84
2022/07/25 11:01:43;;;;;;;;;2.50;2.50;;;;;26.26;70.70;101085.19;5126494;27;45387;-83
2022/07/25 11:04:14;;;;;;;;;3.50;2.25;;;;;26.32;70.32;101081.53;5119066;27;46095;-87
2022/07/25 11:06:41;;;;;;;;;2.00;2.00;;;;;26.40;70.39;101074.31;5107024;27;45698;-81
2022/07/25 11:09:14;;;;;;;;;5.75;2.75;;;;;26.54;69.70;101091.81;5119753;27;45416;-88
2022/07/25 11:11:46;;;;;;;;;2.50;2.50;;;;;26.65;68.29;101079.22;5118128;27;45603;-83
2022/07/25 11:14:19;;;;;;;;;2.00;2.00;;;;;26.77;67.27;101086.06;5100914;27;48006;-84
2022/07/25 11:16:47;;;;;;;;;2.75;2.75;;;;;26.80;67.24;101094.03;5100942;27;45659;-86
2022/07/25 11:19:21;;;;;;;;;2.00;2.00;;;;;26.69;67.07;101069.41;5109303;27;45302;-82
2022/07/25 11:21:55;;;;;;;;;3.25;3.25;;;;;26.68;67.69;101086.25;5127797;27;45400;-87
2022/07/25 11:24:32;;;;;;;;;2.00;2.00;;;;;26.70;66.99;101084.44;5110332;27;46850;-81